sensor_id;sensor_type;location;lat;lon;timestamp;pressure;altitude;pressure_sealevel;temperature;humidity
12757;BME280;31601;48.042;12.240;2023-02-28T00:01:12;96664.63;;;-1.32;60.08
12757;BME280;31601;48.042;12.240;2023-02-28T00:03:39;96661.34;;;-1.34;59.98
12757;BME280;31601;48.042;12.240;2023-02-28T00:06:07;96663.59;;;-1.42;59.95
12757;BME280;31601;48.042;12.240;2023-02-28T00:08:34;96661.63;;;-1.38;60.26
12757;BME280;31601;48.042;12.240;2023-02-28T00:11:01;96657.50;;;-1.41;60.62
12757;BME280;31601;48.042;12.240;2023-02-28T00:13:28;96660.88;;;-1.53;60.82
12757;BME280;31601;48.042;12.240;2023-02-28T00:16:00;96657.53;;;-1.68;61.51
12757;BME280;31601;48.042;12.240;2023-02-28T00:18:27;96651.97;;;-1.35;60.50
12757;BME280;31601;48.042;12.240;2023-02-28T00:20:54;96655.81;;;-1.55;60.77
12757;BME280;31601;48.042;12.240;2023-02-28T00:23:20;96652.72;;;-1.33;60.54
12757;BME280;31601;48.042;12.240;2023-02-28T00:25:46;96649.06;;;-1.43;60.82
12757;BME280;31601;48.042;12.240;2023-02-28T00:28:13;96660.03;;;-1.81;61.69
12757;BME280;31601;48.042;12.240;2023-02-28T00:30:39;96648.97;;;-1.41;61.32
12757;BME280;31601;48.042;12.240;2023-02-28T00:33:07;96646.69;;;-1.46;60.98
12757;BME280;31601;48.042;12.240;2023-02-28T00:35:33;96644.63;;;-1.41;61.16
12757;BME280;31601;48.042;12.240;2023-02-28T00:38:00;96643.41;;;-1.48;60.98
12757;BME280;31601;48.042;12.240;2023-02-28T00:40:26;96640.88;;;-1.63;61.53
12757;BME280;31601;48.042;12.240;2023-02-28T00:42:53;96643.59;;;-1.51;61.36
12757;BME280;31601;48.042;12.240;2023-02-28T00:45:19;96638.88;;;-1.45;61.14
12757;BME280;31601;48.042;12.240;2023-02-28T00:47:46;96635.69;;;-1.48;61.30
12757;BME280;31601;48.042;12.240;2023-02-28T00:50:16;96642.03;;;-1.54;61.50
12757;BME280;31601;48.042;12.240;2023-02-28T00:52:43;96644.91;;;-1.58;61.16
12757;BME280;31601;48.042;12.240;2023-02-28T00:55:10;96642.34;;;-1.58;61.86
12757;BME280;31601;48.042;12.240;2023-02-28T00:57:36;96643.00;;;-1.42;61.36
12757;BME280;31601;48.042;12.240;2023-02-28T01:00:04;96641.91;;;-1.65;61.84
12757;BME280;31601;48.042;12.240;2023-02-28T01:02:31;96637.34;;;-1.74;61.79
12757;BME280;31601;48.042;12.240;2023-02-28T01:04:57;96640.16;;;-1.65;62.03
12757;BME280;31601;48.042;12.240;2023-02-28T01:07:25;96633.31;;;-1.51;61.41
12757;BME280;31601;48.042;12.240;2023-02-28T01:09:51;96631.44;;;-1.49;61.83
12757;BME280;31601;48.042;12.240;2023-02-28T01:12:18;96640.59;;;-1.85;62.62
12757;BME280;31601;48.042;12.240;2023-02-28T01:14:44;96630.84;;;-1.53;61.79
12757;BME280;31601;48.042;12.240;2023-02-28T01:17:11;96634.53;;;-1.44;61.30
12757;BME280;31601;48.042;12.240;2023-02-28T01:19:37;96631.03;;;-1.83;62.68
12757;BME280;31601;48.042;12.240;2023-02-28T01:22:04;96628.16;;;-1.51;61.95
12757;BME280;31601;48.042;12.240;2023-02-28T01:24:33;96619.66;;;-1.66;61.71
12757;BME280;31601;48.042;12.240;2023-02-28T01:26:59;96624.72;;;-1.65;62.34
12757;BME280;31601;48.042;12.240;2023-02-28T01:29:25;96615.25;;;-1.64;61.99
12757;BME280;31601;48.042;12.240;2023-02-28T01:31:52;96623.25;;;-1.69;62.88
12757;BME280;31601;48.042;12.240;2023-02-28T01:34:18;96620.38;;;-1.64;62.39
12757;BME280;31601;48.042;12.240;2023-02-28T01:36:45;96629.19;;;-1.81;62.25
12757;BME280;31601;48.042;12.240;2023-02-28T01:39:12;96630.25;;;-1.71;62.17
12757;BME280;31601;48.042;12.240;2023-02-28T01:41:40;96627.00;;;-1.87;63.42
12757;BME280;31601;48.042;12.240;2023-02-28T01:44:53;96617.19;;;-1.68;62.91
12757;BME280;31601;48.042;12.240;2023-02-28T01:46:53;96626.09;;;-1.46;62.27
12757;BME280;31601;48.042;12.240;2023-02-28T01:49:20;96619.88;;;-1.56;62.04
12757;BME280;31601;48.042;12.240;2023-02-28T01:51:49;96621.56;;;-1.55;62.39
12757;BME280;31601;48.042;12.240;2023-02-28T01:54:18;96620.78;;;-1.70;62.85
12757;BME280;31601;48.042;12.240;2023-02-28T01:56:53;96627.22;;;-1.50;62.08
12757;BME280;31601;48.042;12.240;2023-02-28T01:59:22;96617.66;;;-1.48;61.98
12757;BME280;31601;48.042;12.240;2023-02-28T02:01:50;96610.97;;;-1.51;61.92
12757;BME280;31601;48.042;12.240;2023-02-28T02:04:16;96624.19;;;-1.70;62.32
12757;BME280;31601;48.042;12.240;2023-02-28T02:06:46;96613.06;;;-1.70;62.54
12757;BME280;31601;48.042;12.240;2023-02-28T02:09:13;96613.22;;;-1.59;61.99
12757;BME280;31601;48.042;12.240;2023-02-28T02:11:42;96610.84;;;-1.49;61.57
12757;BME280;31601;48.042;12.240;2023-02-28T02:14:23;96606.81;;;-1.53;62.09
12757;BME280;31601;48.042;12.240;2023-02-28T02:17:04;96609.16;;;-1.76;62.98
12757;BME280;31601;48.042;12.240;2023-02-28T02:20:05;96613.13;;;-1.85;63.65
12757;BME280;31601;48.042;12.240;2023-02-28T02:23:02;96609.53;;;-1.82;63.43
12757;BME280;31601;48.042;12.240;2023-02-28T02:25:39;96604.41;;;-1.82;63.21
12757;BME280;31601;48.042;12.240;2023-02-28T02:28:32;96600.75;;;-1.65;62.56
12757;BME280;31601;48.042;12.240;2023-02-28T02:31:21;96605.69;;;-1.89;63.49
12757;BME280;31601;48.042;12.240;2023-02-28T02:34:20;96606.59;;;-1.63;63.14
12757;BME280;31601;48.042;12.240;2023-02-28T02:36:51;96598.69;;;-1.60;62.73
12757;BME280;31601;48.042;12.240;2023-02-28T02:39:29;96601.88;;;-1.56;61.82
12757;BME280;31601;48.042;12.240;2023-02-28T02:42:00;96611.66;;;-1.62;62.00
12757;BME280;31601;48.042;12.240;2023-02-28T02:44:29;96607.22;;;-1.59;62.40
12757;BME280;31601;48.042;12.240;2023-02-28T02:47:02;96604.66;;;-1.59;62.29
12757;BME280;31601;48.042;12.240;2023-02-28T02:49:32;96601.75;;;-1.68;62.11
12757;BME280;31601;48.042;12.240;2023-02-28T02:52:02;96603.41;;;-1.67;62.54
12757;BME280;31601;48.042;12.240;2023-02-28T02:54:33;96601.84;;;-1.69;62.56
12757;BME280;31601;48.042;12.240;2023-02-28T02:57:08;96600.16;;;-1.83;63.29
12757;BME280;31601;48.042;12.240;2023-02-28T02:59:37;96603.31;;;-1.65;62.79
12757;BME280;31601;48.042;12.240;2023-02-28T03:02:08;96601.84;;;-1.82;63.19
12757;BME280;31601;48.042;12.240;2023-02-28T03:04:42;96604.91;;;-1.77;62.43
12757;BME280;31601;48.042;12.240;2023-02-28T03:07:09;96596.50;;;-1.79;62.96
12757;BME280;31601;48.042;12.240;2023-02-28T03:09:36;96601.63;;;-1.79;62.65
12757;BME280;31601;48.042;12.240;2023-02-28T03:12:03;96604.13;;;-1.92;62.84
12757;BME280;31601;48.042;12.240;2023-02-28T03:14:42;96604.50;;;-1.84;62.78
12757;BME280;31601;48.042;12.240;2023-02-28T03:17:29;96598.00;;;-1.89;63.21
12757;BME280;31601;48.042;12.240;2023-02-28T03:20:04;96601.25;;;-2.00;63.61
12757;BME280;31601;48.042;12.240;2023-02-28T03:22:45;96603.81;;;-2.00;63.68
12757;BME280;31601;48.042;12.240;2023-02-28T03:25:20;96605.59;;;-1.88;64.44
12757;BME280;31601;48.042;12.240;2023-02-28T03:27:58;96607.16;;;-2.12;65.45
12757;BME280;31601;48.042;12.240;2023-02-28T03:30:29;96600.84;;;-1.94;64.08
12757;BME280;31601;48.042;12.240;2023-02-28T03:33:03;96601.47;;;-1.90;63.96
12757;BME280;31601;48.042;12.240;2023-02-28T03:35:37;96598.91;;;-1.90;64.54
12757;BME280;31601;48.042;12.240;2023-02-28T03:38:08;96601.16;;;-1.99;64.61
12757;BME280;31601;48.042;12.240;2023-02-28T03:40:41;96595.72;;;-1.94;64.28
12757;BME280;31601;48.042;12.240;2023-02-28T03:43:12;96588.47;;;-2.02;64.40
12757;BME280;31601;48.042;12.240;2023-02-28T03:45:43;96601.44;;;-2.03;65.09
12757;BME280;31601;48.042;12.240;2023-02-28T03:48:13;96597.94;;;-2.02;64.97
12757;BME280;31601;48.042;12.240;2023-02-28T03:50:45;96606.88;;;-2.08;64.67
12757;BME280;31601;48.042;12.240;2023-02-28T03:53:14;96601.84;;;-1.96;64.37
12757;BME280;31601;48.042;12.240;2023-02-28T03:55:45;96609.44;;;-2.08;64.14
12757;BME280;31601;48.042;12.240;2023-02-28T03:58:16;96603.31;;;-1.92;64.62
12757;BME280;31601;48.042;12.240;2023-02-28T04:00:49;96608.44;;;-2.20;65.14
12757;BME280;31601;48.042;12.240;2023-02-28T04:03:16;96610.56;;;-2.26;65.31
12757;BME280;31601;48.042;12.240;2023-02-28T04:05:50;96614.06;;;-2.27;66.05
12757;BME280;31601;48.042;12.240;2023-02-28T04:08:17;96624.66;;;-2.05;65.29
12757;BME280;31601;48.042;12.240;2023-02-28T04:10:47;96614.06;;;-2.13;65.35
12757;BME280;31601;48.042;12.240;2023-02-28T04:13:15;96620.97;;;-2.28;65.89
12757;BME280;31601;48.042;12.240;2023-02-28T04:15:42;96619.84;;;-2.24;65.91
12757;BME280;31601;48.042;12.240;2023-02-28T04:18:08;96623.44;;;-2.26;66.13
12757;BME280;31601;48.042;12.240;2023-02-28T04:20:35;96629.56;;;-2.14;65.59
12757;BME280;31601;48.042;12.240;2023-02-28T04:23:02;96625.63;;;-2.20;66.05
12757;BME280;31601;48.042;12.240;2023-02-28T04:25:29;96632.63;;;-2.22;66.15
12757;BME280;31601;48.042;12.240;2023-02-28T04:27:55;96629.38;;;-2.26;65.48
12757;BME280;31601;48.042;12.240;2023-02-28T04:30:22;96629.09;;;-2.21;65.84
12757;BME280;31601;48.042;12.240;2023-02-28T04:32:48;96629.44;;;-1.99;65.36
12757;BME280;31601;48.042;12.240;2023-02-28T04:35:15;96622.09;;;-2.05;65.27
12757;BME280;31601;48.042;12.240;2023-02-28T04:37:41;96623.38;;;-1.98;64.54
12757;BME280;31601;48.042;12.240;2023-02-28T04:40:10;96623.75;;;-2.04;65.54
12757;BME280;31601;48.042;12.240;2023-02-28T04:42:37;96632.72;;;-1.96;65.10
12757;BME280;31601;48.042;12.240;2023-02-28T04:45:04;96629.66;;;-2.16;65.59
12757;BME280;31601;48.042;12.240;2023-02-28T04:47:30;96634.44;;;-2.24;66.33
12757;BME280;31601;48.042;12.240;2023-02-28T04:49:57;96636.31;;;-1.99;64.82
12757;BME280;31601;48.042;12.240;2023-02-28T04:52:23;96637.66;;;-2.21;65.83
12757;BME280;31601;48.042;12.240;2023-02-28T04:54:50;96632.06;;;-2.27;65.75
12757;BME280;31601;48.042;12.240;2023-02-28T04:57:17;96634.94;;;-2.05;65.55
12757;BME280;31601;48.042;12.240;2023-02-28T04:59:44;96638.00;;;-2.12;65.98
12757;BME280;31601;48.042;12.240;2023-02-28T05:02:10;96636.81;;;-2.07;65.89
12757;BME280;31601;48.042;12.240;2023-02-28T05:04:37;96637.44;;;-2.03;65.82
12757;BME280;31601;48.042;12.240;2023-02-28T05:07:03;96638.69;;;-2.38;66.91
12757;BME280;31601;48.042;12.240;2023-02-28T05:09:29;96636.66;;;-1.91;65.68
12757;BME280;31601;48.042;12.240;2023-02-28T05:11:58;96645.44;;;-2.08;66.23
12757;BME280;31601;48.042;12.240;2023-02-28T05:14:25;96641.38;;;-2.12;65.72
12757;BME280;31601;48.042;12.240;2023-02-28T05:16:52;96642.75;;;-2.06;66.21
12757;BME280;31601;48.042;12.240;2023-02-28T05:19:18;96645.25;;;-2.05;66.65
12757;BME280;31601;48.042;12.240;2023-02-28T05:21:51;96651.09;;;-2.03;66.37
12757;BME280;31601;48.042;12.240;2023-02-28T05:24:18;96653.56;;;-2.28;66.82
12757;BME280;31601;48.042;12.240;2023-02-28T05:26:48;96652.19;;;-1.92;66.54
12757;BME280;31601;48.042;12.240;2023-02-28T05:29:15;96647.56;;;-1.87;65.68
12757;BME280;31601;48.042;12.240;2023-02-28T05:31:43;96659.47;;;-1.99;66.00
12757;BME280;31601;48.042;12.240;2023-02-28T05:34:09;96653.00;;;-2.19;66.78
12757;BME280;31601;48.042;12.240;2023-02-28T05:36:38;96662.69;;;-2.10;67.17
12757;BME280;31601;48.042;12.240;2023-02-28T05:39:05;96652.91;;;-1.90;66.54
12757;BME280;31601;48.042;12.240;2023-02-28T05:41:32;96657.19;;;-2.18;66.61
12757;BME280;31601;48.042;12.240;2023-02-28T05:43:59;96655.34;;;-2.02;66.82
12757;BME280;31601;48.042;12.240;2023-02-28T05:46:26;96658.00;;;-2.03;66.52
12757;BME280;31601;48.042;12.240;2023-02-28T05:48:54;96659.22;;;-1.82;66.27
12757;BME280;31601;48.042;12.240;2023-02-28T05:51:20;96659.63;;;-1.88;65.64
12757;BME280;31601;48.042;12.240;2023-02-28T05:53:47;96667.84;;;-1.83;65.59
12757;BME280;31601;48.042;12.240;2023-02-28T05:56:14;96671.47;;;-1.85;65.77
12757;BME280;31601;48.042;12.240;2023-02-28T05:58:41;96671.19;;;-1.95;66.16
12757;BME280;31601;48.042;12.240;2023-02-28T06:01:23;96672.88;;;-1.67;65.31
12757;BME280;31601;48.042;12.240;2023-02-28T06:03:49;96673.34;;;-1.47;64.88
12757;BME280;31601;48.042;12.240;2023-02-28T06:06:17;96679.13;;;-1.71;65.64
12757;BME280;31601;48.042;12.240;2023-02-28T06:08:43;96682.09;;;-1.77;65.45
12757;BME280;31601;48.042;12.240;2023-02-28T06:11:10;96691.31;;;-1.60;65.03
12757;BME280;31601;48.042;12.240;2023-02-28T06:13:37;96690.66;;;-1.36;64.05
12757;BME280;31601;48.042;12.240;2023-02-28T06:16:04;96697.94;;;-1.56;64.64
12757;BME280;31601;48.042;12.240;2023-02-28T06:18:30;96699.66;;;-1.56;64.90
12757;BME280;31601;48.042;12.240;2023-02-28T06:20:56;96697.56;;;-1.37;64.35
12757;BME280;31601;48.042;12.240;2023-02-28T06:23:24;96695.13;;;-1.26;64.40
12757;BME280;31601;48.042;12.240;2023-02-28T06:25:51;96699.81;;;-1.45;64.70
12757;BME280;31601;48.042;12.240;2023-02-28T06:28:18;96698.16;;;-1.06;64.10
12757;BME280;31601;48.042;12.240;2023-02-28T06:30:44;96702.00;;;-0.99;63.48
12757;BME280;31601;48.042;12.240;2023-02-28T06:33:11;96711.25;;;-0.96;63.22
12757;BME280;31601;48.042;12.240;2023-02-28T06:35:37;96715.31;;;-0.79;62.86
12757;BME280;31601;48.042;12.240;2023-02-28T06:38:04;96710.59;;;-0.73;62.71
12757;BME280;31601;48.042;12.240;2023-02-28T06:40:31;96720.06;;;-0.73;63.31
12757;BME280;31601;48.042;12.240;2023-02-28T06:43:00;96723.38;;;-0.71;62.70
12757;BME280;31601;48.042;12.240;2023-02-28T06:45:26;96725.75;;;-0.55;62.72
12757;BME280;31601;48.042;12.240;2023-02-28T06:47:52;96723.88;;;-0.53;62.64
12757;BME280;31601;48.042;12.240;2023-02-28T06:50:19;96730.78;;;-0.66;62.52
12757;BME280;31601;48.042;12.240;2023-02-28T06:52:45;96728.72;;;-0.48;62.21
12757;BME280;31601;48.042;12.240;2023-02-28T06:55:12;96732.94;;;-0.34;61.80
12757;BME280;31601;48.042;12.240;2023-02-28T06:57:40;96727.69;;;-0.46;61.76
12757;BME280;31601;48.042;12.240;2023-02-28T07:00:08;96733.88;;;-0.74;62.82
12757;BME280;31601;48.042;12.240;2023-02-28T07:02:35;96730.34;;;-0.99;63.06
12757;BME280;31601;48.042;12.240;2023-02-28T07:05:03;96730.47;;;-0.75;63.15
12757;BME280;31601;48.042;12.240;2023-02-28T07:07:29;96727.47;;;-0.81;62.59
12757;BME280;31601;48.042;12.240;2023-02-28T07:09:57;96733.75;;;-0.85;62.80
12757;BME280;31601;48.042;12.240;2023-02-28T07:12:23;96728.81;;;-0.76;62.83
12757;BME280;31601;48.042;12.240;2023-02-28T07:14:51;96729.84;;;-0.78;63.01
12757;BME280;31601;48.042;12.240;2023-02-28T07:17:19;96732.56;;;-0.54;62.05
12757;BME280;31601;48.042;12.240;2023-02-28T07:19:45;96729.66;;;-0.62;62.33
12757;BME280;31601;48.042;12.240;2023-02-28T07:22:12;96735.59;;;-0.87;62.59
12757;BME280;31601;48.042;12.240;2023-02-28T07:24:38;96725.75;;;-0.68;62.26
12757;BME280;31601;48.042;12.240;2023-02-28T07:27:05;96726.16;;;-0.48;61.67
12757;BME280;31601;48.042;12.240;2023-02-28T07:29:31;96730.69;;;-0.52;60.95
12757;BME280;31601;48.042;12.240;2023-02-28T07:31:59;96731.19;;;-0.21;60.73
12757;BME280;31601;48.042;12.240;2023-02-28T07:34:25;96734.19;;;-0.14;60.40
12757;BME280;31601;48.042;12.240;2023-02-28T07:36:53;96736.88;;;-0.16;60.40
12757;BME280;31601;48.042;12.240;2023-02-28T07:39:19;96737.91;;;-0.44;60.72
12757;BME280;31601;48.042;12.240;2023-02-28T07:41:46;96730.75;;;-0.02;60.20
12757;BME280;31601;48.042;12.240;2023-02-28T07:44:13;96734.72;;;0.28;59.28
12757;BME280;31601;48.042;12.240;2023-02-28T07:46:39;96736.75;;;-0.14;60.09
12757;BME280;31601;48.042;12.240;2023-02-28T07:49:07;96733.59;;;-0.31;60.17
12757;BME280;31601;48.042;12.240;2023-02-28T07:51:33;96740.91;;;-0.50;60.70
12757;BME280;31601;48.042;12.240;2023-02-28T07:54:00;96740.59;;;-0.46;60.55
12757;BME280;31601;48.042;12.240;2023-02-28T07:56:26;96744.09;;;-0.21;60.56
12757;BME280;31601;48.042;12.240;2023-02-28T07:58:53;96745.03;;;0.28;59.80
12757;BME280;31601;48.042;12.240;2023-02-28T08:01:19;96745.97;;;0.27;59.15
12757;BME280;31601;48.042;12.240;2023-02-28T08:03:46;96750.03;;;0.55;58.53
12757;BME280;31601;48.042;12.240;2023-02-28T08:06:18;96744.59;;;0.34;58.77
12757;BME280;31601;48.042;12.240;2023-02-28T08:08:45;96738.75;;;0.32;59.14
12757;BME280;31601;48.042;12.240;2023-02-28T08:11:11;96735.66;;;0.27;58.60
12757;BME280;31601;48.042;12.240;2023-02-28T08:13:37;96739.53;;;0.45;59.02
12757;BME280;31601;48.042;12.240;2023-02-28T08:16:04;96739.81;;;0.53;58.63
12757;BME280;31601;48.042;12.240;2023-02-28T08:18:32;96736.59;;;0.26;58.52
12757;BME280;31601;48.042;12.240;2023-02-28T08:20:58;96737.72;;;0.22;58.94
12757;BME280;31601;48.042;12.240;2023-02-28T08:23:26;96740.19;;;0.36;58.89
12757;BME280;31601;48.042;12.240;2023-02-28T08:25:53;96742.13;;;0.45;58.31
12757;BME280;31601;48.042;12.240;2023-02-28T08:28:20;96745.75;;;0.67;58.23
12757;BME280;31601;48.042;12.240;2023-02-28T08:30:46;96752.88;;;0.87;58.09
12757;BME280;31601;48.042;12.240;2023-02-28T08:33:14;96752.22;;;0.97;57.47
12757;BME280;31601;48.042;12.240;2023-02-28T08:35:40;96754.72;;;1.10;56.50
12757;BME280;31601;48.042;12.240;2023-02-28T08:38:06;96759.97;;;0.97;56.73
12757;BME280;31601;48.042;12.240;2023-02-28T08:40:34;96768.91;;;0.56;57.63
12757;BME280;31601;48.042;12.240;2023-02-28T08:43:01;96767.06;;;0.82;57.38
12757;BME280;31601;48.042;12.240;2023-02-28T08:45:27;96771.25;;;0.71;57.42
12757;BME280;31601;48.042;12.240;2023-02-28T08:47:54;96779.38;;;0.78;57.03
12757;BME280;31601;48.042;12.240;2023-02-28T08:50:20;96778.69;;;0.39;57.89
12757;BME280;31601;48.042;12.240;2023-02-28T08:52:46;96771.91;;;0.12;58.36
12757;BME280;31601;48.042;12.240;2023-02-28T08:55:13;96773.44;;;0.15;58.29
12757;BME280;31601;48.042;12.240;2023-02-28T08:57:41;96780.06;;;0.06;58.50
12757;BME280;31601;48.042;12.240;2023-02-28T09:00:08;96782.56;;;0.45;58.24
12757;BME280;31601;48.042;12.240;2023-02-28T09:02:38;96783.66;;;0.16;58.46
12757;BME280;31601;48.042;12.240;2023-02-28T09:05:06;96781.34;;;0.50;58.91
12757;BME280;31601;48.042;12.240;2023-02-28T09:07:32;96782.91;;;0.40;58.32
12757;BME280;31601;48.042;12.240;2023-02-28T09:09:59;96784.59;;;0.89;57.48
12757;BME280;31601;48.042;12.240;2023-02-28T09:12:27;96785.34;;;0.79;57.02
12757;BME280;31601;48.042;12.240;2023-02-28T09:14:55;96789.00;;;0.39;58.06
12757;BME280;31601;48.042;12.240;2023-02-28T09:17:21;96798.06;;;1.06;57.93
12757;BME280;31601;48.042;12.240;2023-02-28T09:19:48;96790.53;;;1.27;56.39
12757;BME280;31601;48.042;12.240;2023-02-28T09:22:15;96797.84;;;1.09;56.58
12757;BME280;31601;48.042;12.240;2023-02-28T09:24:42;96787.50;;;1.09;56.78
12757;BME280;31601;48.042;12.240;2023-02-28T09:27:10;96791.66;;;1.12;56.63
12757;BME280;31601;48.042;12.240;2023-02-28T09:29:36;96797.97;;;1.43;56.23
12757;BME280;31601;48.042;12.240;2023-02-28T09:32:05;96797.72;;;1.70;55.37
12757;BME280;31601;48.042;12.240;2023-02-28T09:34:31;96807.78;;;1.27;55.60
12757;BME280;31601;48.042;12.240;2023-02-28T09:36:58;96808.53;;;1.75;55.20
12757;BME280;31601;48.042;12.240;2023-02-28T09:39:24;96811.91;;;1.65;54.94
12757;BME280;31601;48.042;12.240;2023-02-28T09:41:52;96814.69;;;1.50;55.33
12757;BME280;31601;48.042;12.240;2023-02-28T09:44:24;96817.84;;;1.89;54.15
12757;BME280;31601;48.042;12.240;2023-02-28T09:46:55;96815.19;;;1.55;55.33
12757;BME280;31601;48.042;12.240;2023-02-28T09:49:31;96822.59;;;1.60;55.25
12757;BME280;31601;48.042;12.240;2023-02-28T09:52:02;96829.63;;;1.93;54.59
12757;BME280;31601;48.042;12.240;2023-02-28T09:54:31;96834.28;;;1.88;53.93
12757;BME280;31601;48.042;12.240;2023-02-28T09:57:01;96835.63;;;1.58;54.63
12757;BME280;31601;48.042;12.240;2023-02-28T09:59:44;96846.19;;;1.91;55.09
12757;BME280;31601;48.042;12.240;2023-02-28T10:02:31;96838.00;;;2.20;54.01
12757;BME280;31601;48.042;12.240;2023-02-28T10:05:08;96835.06;;;2.58;52.45
12757;BME280;31601;48.042;12.240;2023-02-28T10:07:55;96844.34;;;2.72;52.23
12757;BME280;31601;48.042;12.240;2023-02-28T10:10:29;96839.63;;;2.77;52.34
12757;BME280;31601;48.042;12.240;2023-02-28T10:12:59;96839.38;;;2.80;52.31
12757;BME280;31601;48.042;12.240;2023-02-28T10:15:30;96849.63;;;2.82;52.96
12757;BME280;31601;48.042;12.240;2023-02-28T10:17:59;96845.19;;;2.61;52.27
12757;BME280;31601;48.042;12.240;2023-02-28T10:20:31;96850.94;;;2.88;52.45
12757;BME280;31601;48.042;12.240;2023-02-28T10:23:04;96849.91;;;2.67;51.87
12757;BME280;31601;48.042;12.240;2023-02-28T10:25:35;96838.09;;;2.86;52.25
12757;BME280;31601;48.042;12.240;2023-02-28T10:28:09;96846.13;;;2.60;52.46
12757;BME280;31601;48.042;12.240;2023-02-28T10:30:39;96837.88;;;2.21;53.10
12757;BME280;31601;48.042;12.240;2023-02-28T10:33:18;96841.06;;;2.36;53.15
12757;BME280;31601;48.042;12.240;2023-02-28T10:35:46;96840.47;;;2.32;53.15
12757;BME280;31601;48.042;12.240;2023-02-28T10:38:17;96839.06;;;2.06;53.23
12757;BME280;31601;48.042;12.240;2023-02-28T10:40:43;96834.34;;;2.56;53.48
12757;BME280;31601;48.042;12.240;2023-02-28T10:43:19;96837.53;;;2.48;53.25
12757;BME280;31601;48.042;12.240;2023-02-28T10:45:56;96833.53;;;2.44;53.06
12757;BME280;31601;48.042;12.240;2023-02-28T10:48:34;96833.41;;;2.57;53.32
12757;BME280;31601;48.042;12.240;2023-02-28T10:51:04;96831.88;;;2.55;53.64
12757;BME280;31601;48.042;12.240;2023-02-28T10:53:34;96836.72;;;2.48;52.98
12757;BME280;31601;48.042;12.240;2023-02-28T10:56:04;96834.38;;;2.33;53.39
12757;BME280;31601;48.042;12.240;2023-02-28T10:58:44;96835.75;;;2.26;53.25
12757;BME280;31601;48.042;12.240;2023-02-28T11:01:14;96830.13;;;2.21;53.95
12757;BME280;31601;48.042;12.240;2023-02-28T11:03:41;96837.41;;;2.39;53.46
12757;BME280;31601;48.042;12.240;2023-02-28T11:06:15;96834.06;;;1.91;54.26
12757;BME280;31601;48.042;12.240;2023-02-28T11:08:45;96830.00;;;2.23;53.86
12757;BME280;31601;48.042;12.240;2023-02-28T11:11:13;96834.09;;;2.25;53.62
12757;BME280;31601;48.042;12.240;2023-02-28T11:13:39;96837.63;;;2.13;54.10
12757;BME280;31601;48.042;12.240;2023-02-28T11:16:09;96847.97;;;1.90;54.52
12757;BME280;31601;48.042;12.240;2023-02-28T11:18:40;96836.69;;;2.14;54.49
12757;BME280;31601;48.042;12.240;2023-02-28T11:21:15;96839.31;;;2.48;53.39
12757;BME280;31601;48.042;12.240;2023-02-28T11:23:42;96832.69;;;2.44;53.81
12757;BME280;31601;48.042;12.240;2023-02-28T11:26:10;96838.34;;;2.60;52.84
12757;BME280;31601;48.042;12.240;2023-02-28T11:28:38;96831.59;;;2.92;52.47
12757;BME280;31601;48.042;12.240;2023-02-28T11:31:15;96823.03;;;2.80;52.77
12757;BME280;31601;48.042;12.240;2023-02-28T11:33:45;96826.78;;;2.76;52.78
12757;BME280;31601;48.042;12.240;2023-02-28T11:36:18;96835.13;;;2.91;53.04
12757;BME280;31601;48.042;12.240;2023-02-28T11:38:45;96830.63;;;3.36;51.80
12757;BME280;31601;48.042;12.240;2023-02-28T11:41:21;96812.88;;;3.53;49.90
12757;BME280;31601;48.042;12.240;2023-02-28T11:43:59;96814.91;;;3.91;50.20
12757;BME280;31601;48.042;12.240;2023-02-28T11:46:30;96814.28;;;3.99;49.86
12757;BME280;31601;48.042;12.240;2023-02-28T11:49:10;96807.31;;;4.30;50.18
12757;BME280;31601;48.042;12.240;2023-02-28T11:51:47;96809.19;;;4.50;49.02
12757;BME280;31601;48.042;12.240;2023-02-28T11:57:32;96811.47;;;4.83;48.73
12757;BME280;31601;48.042;12.240;2023-02-28T12:00:09;96804.22;;;4.87;48.21
12757;BME280;31601;48.042;12.240;2023-02-28T12:02:56;96796.88;;;4.61;47.76
12757;BME280;31601;48.042;12.240;2023-02-28T12:05:30;96803.28;;;4.88;48.18
12757;BME280;31601;48.042;12.240;2023-02-28T12:08:09;96798.03;;;4.78;48.21
12757;BME280;31601;48.042;12.240;2023-02-28T12:10:57;96796.66;;;4.74;48.43
12757;BME280;31601;48.042;12.240;2023-02-28T12:13:30;96804.38;;;5.05;47.58
12757;BME280;31601;48.042;12.240;2023-02-28T12:16:12;96803.16;;;5.48;48.07
12757;BME280;31601;48.042;12.240;2023-02-28T12:19:01;96793.16;;;5.44;47.65
12757;BME280;31601;48.042;12.240;2023-02-28T12:21:37;96796.31;;;5.08;47.30
12757;BME280;31601;48.042;12.240;2023-02-28T12:24:39;96794.94;;;5.53;47.87
12757;BME280;31601;48.042;12.240;2023-02-28T12:27:13;96781.38;;;5.49;47.34
12757;BME280;31601;48.042;12.240;2023-02-28T12:29:46;96777.94;;;5.39;47.69
12757;BME280;31601;48.042;12.240;2023-02-28T12:32:17;96774.94;;;5.44;46.62
12757;BME280;31601;48.042;12.240;2023-02-28T12:34:48;96777.56;;;5.53;46.33
12757;BME280;31601;48.042;12.240;2023-02-28T12:37:17;96778.06;;;5.67;47.26
12757;BME280;31601;48.042;12.240;2023-02-28T12:39:50;96773.16;;;5.25;46.97
12757;BME280;31601;48.042;12.240;2023-02-28T12:42:24;96767.97;;;5.25;47.74
12757;BME280;31601;48.042;12.240;2023-02-28T12:44:54;96767.16;;;5.34;46.93
12757;BME280;31601;48.042;12.240;2023-02-28T12:47:22;96765.22;;;5.55;47.58
12757;BME280;31601;48.042;12.240;2023-02-28T12:49:52;96764.66;;;5.62;46.62
12757;BME280;31601;48.042;12.240;2023-02-28T12:52:23;96766.84;;;5.66;46.91
12757;BME280;31601;48.042;12.240;2023-02-28T12:54:56;96770.25;;;5.77;47.06
12757;BME280;31601;48.042;12.240;2023-02-28T12:57:32;96766.59;;;5.40;46.50
12757;BME280;31601;48.042;12.240;2023-02-28T13:00:04;96766.34;;;5.24;47.21
12757;BME280;31601;48.042;12.240;2023-02-28T13:08:59;96769.56;;;5.74;46.09
12757;BME280;31601;48.042;12.240;2023-02-28T13:11:30;96768.84;;;5.92;46.83
12757;BME280;31601;48.042;12.240;2023-02-28T13:13:59;96766.59;;;5.60;45.90
12757;BME280;31601;48.042;12.240;2023-02-28T13:16:26;96767.50;;;5.78;45.88
12757;BME280;31601;48.042;12.240;2023-02-28T13:19:08;96760.75;;;5.95;46.05